Time;durP1;ratioP1;P1;durP2;ratioP2;P2;SDS_P1;SDS_P2;PMS_P1;PMS_P2;Temp;Humidity;BMP_temperature;BMP_pressure;BME280_temperature;BME280_humidity;BME280_pressure;Samples;Min_cycle;Max_cycle;Signal;HPM_P1;HPM_P2
2021/06/03 00:00:57;;;;;;;2.35;2.15;;;20.10;54.10;;;;;;3120560;28;20465;-79
2021/06/03 00:02:28;;;;;;;2.63;2.30;;;20.10;54.00;;;;;;3122183;28;20128;-78
2021/06/03 00:04:00;;;;;;;2.78;2.50;;;20.10;54.10;;;;;;3122384;28;20055;-78
2021/06/03 00:05:35;;;;;;;3.17;2.75;;;20.10;54.00;;;;;;3121679;28;20061;-77
2021/06/03 00:07:06;;;;;;;2.55;2.30;;;20.10;54.00;;;;;;3122083;28;20089;-78
2021/06/03 00:08:38;;;;;;;2.88;2.40;;;20.10;54.00;;;;;;3122217;28;20080;-78
2021/06/03 00:10:10;;;;;;;2.70;2.20;;;20.10;54.00;;;;;;3121503;28;20156;-78
2021/06/03 00:11:41;;;;;;;2.33;2.13;;;20.10;54.00;;;;;;3122169;28;20746;-78
2021/06/03 00:13:12;;;;;;;2.47;2.28;;;20.10;54.00;;;;;;3122324;28;20509;-78
2021/06/03 00:14:43;;;;;;;2.60;2.40;;;20.10;54.00;;;;;;3122542;28;20077;-78
2021/06/03 00:16:15;;;;;;;2.60;2.40;;;20.10;54.00;;;;;;3120959;28;20053;-77
2021/06/03 00:17:46;;;;;;;2.55;2.35;;;20.10;54.00;;;;;;3121950;28;20072;-78
2021/06/03 00:19:18;;;;;;;2.83;2.45;;;20.10;54.00;;;;;;3122255;28;20622;-78
2021/06/03 00:20:49;;;;;;;2.58;2.30;;;20.10;54.10;;;;;;3121340;28;20061;-78
2021/06/03 00:22:20;;;;;;;4.15;2.30;;;20.10;54.10;;;;;;3121980;28;20514;-78
2021/06/03 00:23:51;;;;;;;2.55;2.35;;;20.10;54.10;;;;;;3121868;28;20049;-79
2021/06/03 00:25:22;;;;;;;2.40;2.20;;;20.10;54.10;;;;;;3121894;28;20056;-78
2021/06/03 00:26:53;;;;;;;2.47;2.28;;;20.10;54.00;;;;;;3121892;28;20081;-79
2021/06/03 00:28:24;;;;;;;2.72;2.53;;;20.10;54.10;;;;;;3121622;28;20510;-78
2021/06/03 00:29:55;;;;;;;3.10;2.50;;;20.10;54.00;;;;;;3121584;28;20084;-78
2021/06/03 00:31:26;;;;;;;2.60;2.35;;;20.10;54.10;;;;;;3120767;28;20056;-78
2021/06/03 00:32:57;;;;;;;2.50;2.30;;;20.10;54.10;;;;;;3121852;28;20133;-78
2021/06/03 00:34:29;;;;;;;2.72;2.50;;;20.10;54.10;;;;;;3122104;28;20520;-79
2021/06/03 00:36:00;;;;;;;2.72;2.53;;;20.10;54.10;;;;;;3121426;28;20038;-78
2021/06/03 00:37:31;;;;;;;2.47;2.28;;;20.10;54.10;;;;;;3124214;28;20517;-78
2021/06/03 00:39:02;;;;;;;2.60;2.40;;;20.10;54.70;;;;;;3124129;28;20107;-78
2021/06/03 00:40:34;;;;;;;2.60;2.40;;;20.10;54.00;;;;;;3123474;28;20119;-79
2021/06/03 00:42:05;;;;;;;2.85;2.45;;;20.10;54.10;;;;;;3123830;28;20136;-78
2021/06/03 00:43:36;;;;;;;2.35;2.10;;;20.10;54.70;;;;;;3124293;28;20123;-79
2021/06/03 00:45:08;;;;;;;2.67;2.30;;;20.10;54.00;;;;;;3122727;28;20091;-78
2021/06/03 00:46:39;;;;;;;2.80;2.50;;;20.10;54.00;;;;;;3123836;28;20045;-78
2021/06/03 00:48:10;;;;;;;2.70;2.50;;;20.10;54.30;;;;;;3124055;28;20126;-78
2021/06/03 00:49:43;;;;;;;2.67;2.42;;;20.10;54.00;;;;;;3123683;28;20458;-78
2021/06/03 00:51:13;;;;;;;2.30;2.10;;;20.10;54.00;;;;;;3123774;28;20080;-78
2021/06/03 00:52:44;;;;;;;2.55;2.35;;;20.10;54.00;;;;;;3124152;28;20049;-79
2021/06/03 00:54:15;;;;;;;2.50;2.30;;;20.10;54.10;;;;;;3124476;28;20508;-78
2021/06/03 00:55:48;;;;;;;2.22;2.03;;;20.10;54.10;;;;;;3123428;28;20486;-78
2021/06/03 00:57:19;;;;;;;2.35;2.15;;;20.10;54.10;;;;;;3124190;28;20064;-78
2021/06/03 00:58:50;;;;;;;2.83;2.50;;;20.10;54.10;;;;;;3124877;28;20103;-79
2021/06/03 01:00:21;;;;;;;2.53;2.33;;;20.10;54.00;;;;;;3123933;28;20088;-78
2021/06/03 01:01:52;;;;;;;2.63;2.30;;;20.10;54.00;;;;;;3124833;28;20048;-77
2021/06/03 01:03:25;;;;;;;2.55;2.35;;;20.10;54.00;;;;;;3124954;28;20049;-77
2021/06/03 01:04:57;;;;;;;3.55;2.40;;;20.10;54.10;;;;;;3124066;28;20083;-78
2021/06/03 01:06:28;;;;;;;2.58;2.30;;;20.10;54.10;;;;;;3123302;28;20049;-78
2021/06/03 01:07:59;;;;;;;3.35;2.60;;;20.10;54.10;;;;;;3123656;28;20437;-79
2021/06/03 01:09:34;;;;;;;2.72;2.53;;;20.10;54.00;;;;;;3123974;28;20113;-78
2021/06/03 01:11:08;;;;;;;2.38;2.17;;;20.10;54.10;;;;;;3123108;28;20065;-78
2021/06/03 01:12:42;;;;;;;2.30;2.10;;;20.10;54.10;;;;;;3124181;28;20407;-78
2021/06/03 01:14:15;;;;;;;2.60;2.40;;;20.10;54.00;;;;;;3123640;28;20526;-78
2021/06/03 01:15:46;;;;;;;2.60;2.40;;;20.10;54.00;;;;;;3122356;28;20046;-78
2021/06/03 01:17:18;;;;;;;2.67;2.47;;;20.10;54.00;;;;;;3123934;28;20407;-78
2021/06/03 01:18:49;;;;;;;2.70;2.50;;;20.10;54.00;;;;;;3123569;28;20146;-78
2021/06/03 01:20:21;;;;;;;2.60;2.40;;;20.10;54.00;;;;;;3123056;28;20466;-78
2021/06/03 01:21:54;;;;;;;2.50;2.30;;;20.10;54.00;;;;;;3123458;28;20057;-78
2021/06/03 01:23:26;;;;;;;2.85;2.60;;;20.10;54.00;;;;;;3124290;28;20095;-78
2021/06/03 01:24:59;;;;;;;2.83;2.50;;;20.10;54.00;;;;;;3123832;28;20151;-78
2021/06/03 01:26:30;;;;;;;3.47;2.40;;;20.10;54.00;;;;;;3123296;28;20103;-78
2021/06/03 01:28:01;;;;;;;2.63;2.42;;;20.10;54.00;;;;;;3123542;28;20084;-78
2021/06/03 01:29:40;;;;;;;3.88;2.70;;;20.10;54.10;;;;;;3123701;28;20069;-79
2021/06/03 01:31:11;;;;;;;2.50;2.30;;;20.10;54.00;;;;;;3122489;28;20041;-79
2021/06/03 01:32:44;;;;;;;3.38;2.35;;;20.10;54.00;;;;;;3123584;28;20490;-78
2021/06/03 01:34:15;;;;;;;3.08;2.30;;;20.10;54.00;;;;;;3124020;28;20045;-78
2021/06/03 01:35:48;;;;;;;2.40;2.20;;;20.10;54.00;;;;;;3123108;28;20069;-78
2021/06/03 01:37:18;;;;;;;2.67;2.47;;;20.10;54.00;;;;;;3123796;28;20049;-79
2021/06/03 01:38:49;;;;;;;2.60;2.40;;;20.10;54.00;;;;;;3123116;28;20049;-78
2021/06/03 01:40:22;;;;;;;2.80;2.55;;;20.10;54.00;;;;;;3122971;28;20049;-79
2021/06/03 01:41:54;;;;;;;;;;;20.10;54.00;;;;;;3124214;28;20050;-78
2021/06/03 01:43:25;;;;;;;2.83;2.47;;;20.10;54.10;;;;;;3123442;28;19921;-80
2021/06/03 01:44:56;;;;;;;2.70;2.50;;;20.10;54.00;;;;;;3123371;28;20053;-78
2021/06/03 01:46:27;;;;;;;2.60;2.40;;;20.10;54.00;;;;;;3121965;28;20115;-78
2021/06/03 01:47:58;;;;;;;2.75;2.13;;;20.10;54.00;;;;;;3122545;28;20574;-77
2021/06/03 01:49:29;;;;;;;3.00;2.60;;;20.10;54.00;;;;;;3123573;28;20080;-79
2021/06/03 01:51:02;;;;;;;2.50;2.30;;;20.10;54.00;;;;;;3122575;28;20041;-78
2021/06/03 01:52:33;;;;;;;2.40;2.20;;;20.10;54.00;;;;;;3123482;28;20073;-77
2021/06/03 01:54:04;;;;;;;2.50;2.30;;;20.10;54.00;;;;;;3123206;28;20077;-79
2021/06/03 01:55:36;;;;;;;2.60;2.40;;;20.10;54.00;;;;;;3122978;28;20145;-78
2021/06/03 01:57:08;;;;;;;2.92;2.55;;;20.10;54.00;;;;;;3123250;28;20053;-78
2021/06/03 01:58:39;;;;;;;2.78;2.42;;;20.10;54.00;;;;;;3122927;28;20469;-78
2021/06/03 02:00:11;;;;;;;2.97;2.60;;;20.10;54.00;;;;;;3121957;28;20095;-78
2021/06/03 02:01:42;;;;;;;2.70;2.50;;;20.10;54.00;;;;;;3122865;28;20057;-79
2021/06/03 02:03:13;;;;;;;2.97;2.67;;;20.10;54.00;;;;;;3123677;28;20073;-78
2021/06/03 02:04:45;;;;;;;2.30;2.10;;;20.00;54.00;;;;;;3123279;28;20085;-78
2021/06/03 02:06:17;;;;;;;2.57;2.37;;;20.00;54.00;;;;;;3122722;28;20037;-79
2021/06/03 02:07:47;;;;;;;2.47;2.28;;;20.10;54.10;;;;;;3122826;28;20307;-78
2021/06/03 02:09:18;;;;;;;3.10;2.63;;;20.10;54.10;;;;;;3123610;28;20045;-80
2021/06/03 02:10:51;;;;;;;2.55;2.35;;;20.10;54.10;;;;;;3122328;28;20462;-78
2021/06/03 02:12:22;;;;;;;2.50;2.30;;;20.10;54.10;;;;;;3123195;28;20076;-78
2021/06/03 02:13:56;;;;;;;2.85;2.58;;;20.00;54.00;;;;;;3123089;28;20049;-79
2021/06/03 02:15:27;;;;;;;2.63;2.42;;;20.10;54.10;;;;;;3122028;28;20092;-78
2021/06/03 02:16:59;;;;;;;3.05;2.10;;;20.10;54.00;;;;;;3123050;28;20662;-78
2021/06/03 02:18:32;;;;;;;2.80;2.53;;;20.10;54.00;;;;;;3123071;28;20077;-80
2021/06/03 02:20:06;;;;;;;2.38;2.17;;;20.10;54.00;;;;;;3122967;28;20076;-78
2021/06/03 02:21:37;;;;;;;2.90;2.50;;;20.00;54.00;;;;;;3122763;28;20084;-79
2021/06/03 02:23:09;;;;;;;2.50;2.30;;;20.10;54.10;;;;;;3123142;28;20085;-78
2021/06/03 02:24:40;;;;;;;2.63;2.42;;;20.10;54.10;;;;;;3123070;28;20041;-79
2021/06/03 02:26:12;;;;;;;3.10;2.50;;;20.00;54.00;;;;;;3122366;28;20053;-79
2021/06/03 02:27:43;;;;;;;2.53;2.33;;;20.10;54.10;;;;;;3122796;28;20050;-78
2021/06/03 02:29:15;;;;;;;3.00;2.70;;;20.10;54.10;;;;;;3123094;28;20531;-79
2021/06/03 02:30:45;;;;;;;2.78;2.47;;;20.00;54.00;;;;;;3121479;28;20144;-80
2021/06/03 02:32:17;;;;;;;2.70;2.47;;;20.10;54.00;;;;;;3122944;28;20042;-79
2021/06/03 02:33:49;;;;;;;2.60;2.40;;;20.10;54.00;;;;;;3122672;28;20089;-79
2021/06/03 02:35:20;;;;;;;2.70;2.50;;;20.10;54.00;;;;;;3122334;28;20136;-78
2021/06/03 02:36:51;;;;;;;2.40;2.20;;;20.10;54.10;;;;;;3122969;28;20508;-79
2021/06/03 02:38:23;;;;;;;2.58;2.38;;;20.10;54.10;;;;;;3123092;28;20087;-80
2021/06/03 02:39:58;;;;;;;2.58;2.38;;;20.00;54.00;;;;;;3122702;28;20073;-78
2021/06/03 02:41:30;;;;;;;2.40;2.20;;;20.10;54.10;;;;;;3122358;28;20052;-78
2021/06/03 02:43:01;;;;;;;2.85;2.53;;;20.10;54.00;;;;;;3122737;28;20069;-78
2021/06/03 02:44:32;;;;;;;2.58;2.38;;;20.10;54.00;;;;;;3122882;28;20056;-77
2021/06/03 02:46:04;;;;;;;2.40;2.20;;;20.10;54.00;;;;;;3121536;28;20079;-78
2021/06/03 02:47:34;;;;;;;2.50;2.30;;;20.10;53.90;;;;;;3122691;28;20600;-78
2021/06/03 02:49:05;;;;;;;3.42;2.60;;;20.10;54.00;;;;;;3122570;28;20145;-78
2021/06/03 02:50:36;;;;;;;2.65;2.40;;;20.10;54.00;;;;;;3120949;28;20514;-79
2021/06/03 02:52:07;;;;;;;2.53;2.33;;;20.10;54.00;;;;;;3122827;28;20053;-79
2021/06/03 02:53:39;;;;;;;2.80;2.40;;;20.10;54.60;;;;;;3122776;28;20084;-79
2021/06/03 02:55:12;;;;;;;2.65;2.40;;;20.10;54.00;;;;;;3122297;28;20061;-78
2021/06/03 02:56:44;;;;;;;2.78;2.58;;;20.10;54.00;;;;;;3122502;28;20084;-78
2021/06/03 02:58:16;;;;;;;2.58;2.38;;;20.10;54.00;;;;;;3122261;28;20182;-78
2021/06/03 02:59:46;;;;;;;3.78;2.17;;;20.10;54.00;;;;;;3121593;28;20158;-78
2021/06/03 03:01:17;;;;;;;2.90;2.33;;;20.10;54.00;;;;;;3121111;28;20053;-78
2021/06/03 03:02:48;;;;;;;5.40;2.58;;;20.10;54.60;;;;;;3122591;28;20076;-78
2021/06/03 03:04:19;;;;;;;2.88;2.60;;;20.10;54.00;;;;;;3122576;28;20095;-78
2021/06/03 03:05:50;;;;;;;2.47;2.28;;;20.10;54.00;;;;;;3121919;28;20061;-79
2021/06/03 03:07:21;;;;;;;3.03;2.72;;;20.10;54.00;;;;;;3122671;28;20093;-79
2021/06/03 03:08:52;;;;;;;3.05;2.50;;;20.00;53.90;;;;;;3122283;28;20038;-79
2021/06/03 03:10:24;;;;;;;3.10;2.35;;;20.10;54.00;;;;;;3121862;28;20099;-77
2021/06/03 03:11:56;;;;;;;2.80;2.60;;;20.10;54.00;;;;;;3122531;28;20068;-78
2021/06/03 03:13:27;;;;;;;2.60;2.40;;;20.10;54.00;;;;;;3122549;28;20057;-78
2021/06/03 03:14:59;;;;;;;2.80;2.60;;;20.10;54.00;;;;;;3122605;28;20179;-78
2021/06/03 03:16:30;;;;;;;3.05;2.75;;;20.00;54.00;;;;;;3121233;28;20123;-79
2021/06/03 03:18:01;;;;;;;2.90;2.60;;;20.10;54.00;;;;;;3122559;28;20088;-78
2021/06/03 03:21:12;;;;;;;2.30;2.13;;;20.10;54.00;;;;;;3125917;28;20052;-82
2021/06/03 03:22:43;;;;;;;2.80;2.55;;;20.10;54.00;;;;;;3117452;28;20077;-82
2021/06/03 03:24:14;;;;;;;2.70;2.50;;;20.00;54.00;;;;;;3115296;28;20391;-83
2021/06/03 03:25:45;;;;;;;3.35;3.05;;;20.10;54.00;;;;;;3114752;28;20399;-82
2021/06/03 03:27:18;;;;;;;2.47;2.28;;;20.00;53.90;;;;;;3114605;28;20054;-82
2021/06/03 03:28:48;;;;;;;2.55;2.35;;;20.10;54.00;;;;;;3114488;28;20168;-82
2021/06/03 03:30:20;;;;;;;2.70;2.50;;;20.10;54.00;;;;;;3112970;28;20129;-82
2021/06/03 03:31:51;;;;;;;2.70;2.50;;;20.00;53.90;;;;;;3114735;28;20077;-82
2021/06/03 03:33:23;;;;;;;2.47;2.28;;;20.10;54.00;;;;;;3115637;28;20057;-81
2021/06/03 03:34:53;;;;;;;2.90;2.63;;;20.10;54.00;;;;;;3115126;28;20085;-82
2021/06/03 03:36:24;;;;;;;2.78;2.42;;;20.10;54.00;;;;;;3115144;28;20407;-82
2021/06/03 03:37:55;;;;;;;2.58;2.38;;;20.10;54.00;;;;;;3115198;28;20050;-82
2021/06/03 03:39:26;;;;;;;2.42;2.20;;;20.10;54.00;;;;;;3115777;28;20486;-82
2021/06/03 03:40:58;;;;;;;3.00;2.70;;;20.10;54.00;;;;;;3114100;28;20065;-82
2021/06/03 03:42:30;;;;;;;2.85;2.40;;;20.00;53.90;;;;;;3115769;28;20053;-82
2021/06/03 03:44:01;;;;;;;2.63;2.38;;;20.10;54.00;;;;;;3115600;28;20050;-82
2021/06/03 03:45:32;;;;;;;2.60;2.30;;;20.10;54.00;;;;;;3113729;28;20085;-82
2021/06/03 03:47:03;;;;;;;2.35;2.15;;;20.10;54.00;;;;;;3115216;28;20046;-82
2021/06/03 03:48:35;;;;;;;2.55;2.35;;;20.10;54.00;;;;;;3115609;28;20086;-82
2021/06/03 03:50:06;;;;;;;2.53;2.33;;;20.10;54.00;;;;;;3114500;28;20107;-82
2021/06/03 03:51:37;;;;;;;3.72;2.38;;;20.10;53.90;;;;;;3115289;28;20052;-82
2021/06/03 03:53:08;;;;;;;2.97;2.50;;;20.10;53.90;;;;;;3115942;28;20073;-82
2021/06/03 03:54:39;;;;;;;2.42;2.22;;;20.10;53.90;;;;;;3115781;28;20045;-82
2021/06/03 03:56:11;;;;;;;3.10;2.60;;;20.00;53.90;;;;;;3114671;28;20053;-82
2021/06/03 03:57:44;;;;;;;3.03;2.72;;;20.10;54.00;;;;;;3115681;28;20418;-82
2021/06/03 03:59:15;;;;;;;;;;;20.10;53.90;;;;;;3116062;28;20534;-82
2021/06/03 04:00:46;;;;;;;2.70;2.50;;;20.10;53.90;;;;;;3114588;28;19921;-82
2021/06/03 04:02:17;;;;;;;2.67;2.45;;;20.10;53.90;;;;;;3115957;28;20069;-82
2021/06/03 04:03:49;;;;;;;3.25;2.40;;;20.10;53.90;;;;;;3115837;28;20042;-82
2021/06/03 04:05:20;;;;;;;2.70;2.50;;;20.10;53.90;;;;;;3115456;28;20427;-82
2021/06/03 04:06:51;;;;;;;2.75;2.42;;;20.10;53.90;;;;;;3115006;28;20041;-82
2021/06/03 04:08:22;;;;;;;2.45;2.25;;;20.10;54.00;;;;;;3115297;28;20101;-82
2021/06/03 04:09:53;;;;;;;3.22;2.08;;;20.10;54.00;;;;;;3115014;28;20038;-82
2021/06/03 04:11:25;;;;;;;2.67;2.47;;;20.00;53.90;;;;;;3114332;28;20098;-82
2021/06/03 04:12:57;;;;;;;2.55;2.35;;;20.10;54.00;;;;;;3115857;28;20050;-82
2021/06/03 04:14:28;;;;;;;2.72;2.33;;;20.00;53.90;;;;;;3116037;28;20071;-80
2021/06/03 04:15:59;;;;;;;2.85;2.65;;;20.10;54.00;;;;;;3114787;28;20511;-81
2021/06/03 04:17:30;;;;;;;2.50;2.30;;;20.10;54.00;;;;;;3115956;28;20050;-82
2021/06/03 04:19:01;;;;;;;2.55;2.30;;;20.10;54.00;;;;;;3116512;28;20073;-83
2021/06/03 04:20:33;;;;;;;2.97;2.60;;;20.00;53.90;;;;;;3114904;28;20107;-82
2021/06/03 04:22:04;;;;;;;2.43;2.23;;;20.10;54.00;;;;;;3116168;28;20060;-81
2021/06/03 04:23:35;;;;;;;3.38;2.90;;;20.10;54.00;;;;;;3116358;28;20738;-82
2021/06/03 04:25:07;;;;;;;4.55;2.60;;;20.00;54.00;;;;;;3114884;28;20074;-82
2021/06/03 04:26:38;;;;;;;2.55;2.35;;;20.00;53.90;;;;;;3115978;28;20060;-81
2021/06/03 04:28:10;;;;;;;2.72;2.53;;;20.10;54.00;;;;;;3116391;28;20080;-81
2021/06/03 04:29:42;;;;;;;2.55;2.35;;;20.10;54.00;;;;;;3115211;28;20072;-81
2021/06/03 04:31:13;;;;;;;2.78;2.58;;;20.10;54.00;;;;;;3115143;28;20073;-82
2021/06/03 04:32:44;;;;;;;4.80;2.28;;;20.10;54.00;;;;;;3115784;28;20050;-83
2021/06/03 04:34:15;;;;;;;3.97;2.50;;;20.10;53.90;;;;;;3115420;28;20042;-82
2021/06/03 04:35:46;;;;;;;2.58;2.38;;;20.10;53.90;;;;;;3114681;28;20048;-82
2021/06/03 04:37:17;;;;;;;2.60;2.40;;;20.00;53.90;;;;;;3115413;28;20073;-82
2021/06/03 04:38:48;;;;;;;2.40;2.20;;;20.10;54.00;;;;;;3116045;28;20074;-82
2021/06/03 04:40:20;;;;;;;2.90;2.60;;;20.10;54.00;;;;;;3115510;28;20580;-82
2021/06/03 04:41:51;;;;;;;2.30;2.10;;;20.10;54.00;;;;;;3115351;28;20058;-82
2021/06/03 04:43:23;;;;;;;2.70;2.50;;;20.10;54.00;;;;;;3116269;28;20510;-82
2021/06/03 04:44:54;;;;;;;2.65;2.45;;;20.10;54.00;;;;;;3115181;28;20077;-82
2021/06/03 04:46:25;;;;;;;3.67;2.30;;;20.10;54.00;;;;;;3114044;28;20065;-81
2021/06/03 04:47:56;;;;;;;3.83;2.50;;;20.10;54.00;;;;;;3115008;28;20045;-82
2021/06/03 04:49:28;;;;;;;2.80;2.58;;;20.10;54.00;;;;;;3116055;28;20587;-82
2021/06/03 04:50:59;;;;;;;2.47;2.28;;;20.10;54.00;;;;;;3114923;28;20100;-81
2021/06/03 04:52:29;;;;;;;2.67;2.47;;;20.10;54.00;;;;;;3115274;28;20066;-82
2021/06/03 04:54:01;;;;;;;2.50;2.30;;;20.10;54.00;;;;;;3115296;28;20050;-82
2021/06/03 04:55:32;;;;;;;3.58;2.40;;;20.00;54.00;;;;;;3114744;28;20461;-82
2021/06/03 04:57:04;;;;;;;2.50;2.30;;;20.10;54.00;;;;;;3115201;28;20514;-82
2021/06/03 04:58:36;;;;;;;2.95;2.35;;;20.10;54.00;;;;;;3115340;28;20076;-82
2021/06/03 05:00:08;;;;;;;2.70;2.50;;;20.10;54.00;;;;;;3114117;28;20053;-82
2021/06/03 05:01:40;;;;;;;2.95;2.63;;;20.00;54.00;;;;;;3115789;28;20060;-82
2021/06/03 05:03:12;;;;;;;2.47;2.28;;;20.10;54.00;;;;;;3114930;28;20060;-81
2021/06/03 05:04:43;;;;;;;2.63;2.42;;;20.00;53.90;;;;;;3115457;28;20473;-82
2021/06/03 05:06:14;;;;;;;2.60;2.40;;;20.10;54.00;;;;;;3115023;28;20068;-82
2021/06/03 05:07:47;;;;;;;2.65;2.45;;;20.10;54.00;;;;;;3115801;28;20533;-82
2021/06/03 05:09:18;;;;;;;2.80;2.22;;;20.10;54.00;;;;;;3115471;28;20045;-82
2021/06/03 05:10:49;;;;;;;2.55;2.22;;;20.00;54.00;;;;;;3115243;28;20042;-82
2021/06/03 05:12:20;;;;;;;2.55;2.28;;;20.00;54.00;;;;;;3115964;28;20054;-81
2021/06/03 05:13:52;;;;;;;2.50;2.30;;;20.10;54.10;;;;;;3115842;28;20505;-82
2021/06/03 05:15:23;;;;;;;2.85;2.58;;;20.00;54.00;;;;;;3113440;28;20088;-82
2021/06/03 05:16:55;;;;;;;2.70;2.50;;;20.10;54.00;;;;;;3115078;28;20089;-81
2021/06/03 05:18:26;;;;;;;2.60;2.40;;;20.10;54.00;;;;;;3115379;28;20093;-82
2021/06/03 05:19:57;;;;;;;2.67;2.38;;;20.10;54.00;;;;;;3114381;28;20135;-82
2021/06/03 05:21:28;;;;;;;2.80;2.60;;;20.10;54.00;;;;;;3114817;28;20049;-82
2021/06/03 05:23:00;;;;;;;2.97;2.50;;;20.10;54.00;;;;;;3115143;28;20530;-82
2021/06/03 05:24:31;;;;;;;3.60;2.50;;;20.10;54.00;;;;;;3116009;28;20081;-82
2021/06/03 05:26:02;;;;;;;2.85;2.50;;;20.10;54.00;;;;;;3115249;28;20042;-82
2021/06/03 05:27:33;;;;;;;2.63;2.40;;;20.10;53.90;;;;;;3115304;28;20050;-82
2021/06/03 05:29:06;;;;;;;2.60;2.40;;;20.10;54.00;;;;;;3115775;28;20446;-82
2021/06/03 05:30:37;;;;;;;2.60;2.40;;;20.10;54.00;;;;;;3113386;28;20057;-82
2021/06/03 05:32:07;;;;;;;2.30;2.10;;;20.10;54.00;;;;;;3115451;28;20088;-82
2021/06/03 05:33:39;;;;;;;3.35;2.20;;;20.10;54.00;;;;;;3114984;28;20056;-83
2021/06/03 05:35:11;;;;;;;2.53;2.33;;;20.10;54.00;;;;;;3115490;28;20081;-82
2021/06/03 05:36:42;;;;;;;;;;;20.10;53.90;;;;;;3116438;28;20513;-82
2021/06/03 05:38:14;;;;;;;2.50;2.30;;;20.10;53.90;;;;;;3115342;28;19928;-82
2021/06/03 05:39:44;;;;;;;3.60;2.17;;;20.20;54.00;;;;;;3116383;28;20073;-81
2021/06/03 05:41:15;;;;;;;3.55;2.70;;;20.10;54.00;;;;;;3116660;28;20037;-83
2021/06/03 05:42:47;;;;;;;2.75;2.55;;;20.10;53.90;;;;;;3116798;28;20124;-83
2021/06/03 05:44:19;;;;;;;2.60;2.40;;;20.10;54.00;;;;;;3116538;28;20085;-82
2021/06/03 05:45:50;;;;;;;2.75;2.50;;;20.10;53.90;;;;;;3114391;28;20065;-83
2021/06/03 05:47:21;;;;;;;2.80;2.60;;;20.10;54.00;;;;;;3116255;28;20523;-83
2021/06/03 05:48:52;;;;;;;2.53;2.22;;;20.10;54.00;;;;;;3115575;28;20049;-82
2021/06/03 05:50:24;;;;;;;2.60;2.40;;;20.10;54.00;;;;;;3115357;28;20691;-82
2021/06/03 05:51:55;;;;;;;2.90;2.60;;;20.10;54.00;;;;;;3116308;28;20216;-83
2021/06/03 05:53:26;;;;;;;2.88;2.40;;;20.10;53.90;;;;;;3116399;28;20050;-82
2021/06/03 05:54:57;;;;;;;3.08;2.60;;;20.20;54.00;;;;;;3115568;28;20083;-82
2021/06/03 05:56:28;;;;;;;3.03;2.72;;;20.10;54.00;;;;;;3115072;28;20077;-82
2021/06/03 05:57:59;;;;;;;2.53;2.33;;;20.10;53.90;;;;;;3115956;28;20085;-82
2021/06/03 05:59:31;;;;;;;2.60;2.40;;;20.10;53.90;;;;;;3116006;28;20049;-81
2021/06/03 06:01:02;;;;;;;2.63;2.30;;;20.20;54.00;;;;;;3113501;28;20133;-82
2021/06/03 06:02:44;;;;;;;2.67;2.47;;;20.10;54.60;;;;;;3115657;28;20047;-82
2021/06/03 06:06:24;;;;;;;2.83;2.63;;;20.20;54.10;;;;;;3114213;28;20037;-81
2021/06/03 06:07:54;;;;;;;2.97;2.35;;;20.20;54.00;;;;;;3115078;28;20050;-82
2021/06/03 06:09:25;;;;;;;2.83;2.60;;;20.20;54.00;;;;;;3115950;28;20052;-82
2021/06/03 06:10:56;;;;;;;2.80;2.60;;;20.20;54.10;;;;;;3114537;28;20076;-81
2021/06/03 06:12:27;;;;;;;2.70;2.35;;;20.20;54.10;;;;;;3115308;28;20054;-82
2021/06/03 06:14:00;;;;;;;2.63;2.40;;;20.20;54.10;;;;;;3115613;28;20069;-80
2021/06/03 06:15:33;;;;;;;2.50;2.30;;;20.10;54.00;;;;;;3114622;28;20073;-81
2021/06/03 06:17:04;;;;;;;2.70;2.50;;;20.10;54.00;;;;;;3115087;28;20049;-82
2021/06/03 06:18:36;;;;;;;2.95;2.40;;;20.20;54.10;;;;;;3115908;28;20042;-82
2021/06/03 06:20:08;;;;;;;3.75;2.70;;;20.10;54.00;;;;;;3114477;28;20057;-82
2021/06/03 06:21:39;;;;;;;2.78;2.58;;;20.20;54.10;;;;;;3114904;28;20133;-82
2021/06/03 06:23:14;;;;;;;3.10;2.80;;;20.20;54.10;;;;;;3115444;28;20567;-82
2021/06/03 06:24:45;;;;;;;2.60;2.40;;;20.20;54.00;;;;;;3116572;28;20553;-82
2021/06/03 06:26:16;;;;;;;2.63;2.42;;;20.20;54.00;;;;;;3114827;28;20041;-83
2021/06/03 06:27:47;;;;;;;2.88;2.67;;;20.20;54.10;;;;;;3115046;28;20046;-81
2021/06/03 06:29:18;;;;;;;2.40;2.20;;;20.20;54.10;;;;;;3114884;28;20054;-82
2021/06/03 06:30:50;;;;;;;3.60;2.40;;;20.20;54.00;;;;;;3112997;28;20065;-82
2021/06/03 06:32:21;;;;;;;2.53;2.33;;;20.10;54.00;;;;;;3114906;28;20049;-82
2021/06/03 06:33:53;;;;;;;2.60;2.40;;;20.20;54.10;;;;;;3115615;28;20495;-82
2021/06/03 06:35:24;;;;;;;2.83;2.47;;;20.20;54.00;;;;;;3115549;28;20046;-82
2021/06/03 06:36:55;;;;;;;3.33;2.67;;;20.20;54.10;;;;;;3115390;28;20498;-82
2021/06/03 06:38:26;;;;;;;2.85;2.55;;;20.20;54.10;;;;;;3115314;28;20046;-82
2021/06/03 06:39:57;;;;;;;2.72;2.53;;;20.20;54.10;;;;;;3115017;28;20084;-82
2021/06/03 06:41:28;;;;;;;3.05;2.63;;;20.20;54.00;;;;;;3114893;28;20498;-82
2021/06/03 06:42:59;;;;;;;2.55;2.35;;;20.20;54.00;;;;;;3114678;28;20131;-82
2021/06/03 06:44:30;;;;;;;3.03;2.50;;;20.20;54.00;;;;;;3115904;28;20487;-82
2021/06/03 06:46:02;;;;;;;2.85;2.17;;;20.20;54.10;;;;;;3114171;28;20467;-81
2021/06/03 06:47:35;;;;;;;2.72;2.40;;;20.20;54.10;;;;;;3115793;28;20084;-81
2021/06/03 06:49:06;;;;;;;2.55;2.35;;;20.20;54.10;;;;;;3115905;28;20528;-82
2021/06/03 06:50:38;;;;;;;2.50;2.30;;;20.20;54.10;;;;;;3114210;28;20156;-82
2021/06/03 06:52:09;;;;;;;3.33;2.38;;;20.20;54.20;;;;;;3115353;28;20549;-82
2021/06/03 06:53:40;;;;;;;2.78;2.58;;;20.20;54.10;;;;;;3115507;28;20050;-81
2021/06/03 06:55:11;;;;;;;2.65;2.45;;;20.20;54.10;;;;;;3115262;28;20050;-82
2021/06/03 06:56:43;;;;;;;2.50;2.30;;;20.20;54.10;;;;;;3115673;28;20491;-81
2021/06/03 06:58:13;;;;;;;2.78;2.53;;;20.20;54.10;;;;;;3116029;28;20069;-82
2021/06/03 06:59:44;;;;;;;2.58;2.38;;;20.20;54.10;;;;;;3115726;28;20105;-80
2021/06/03 07:01:17;;;;;;;3.63;2.40;;;20.20;54.10;;;;;;3115105;28;20057;-82
2021/06/03 07:02:47;;;;;;;2.83;2.47;;;20.20;54.10;;;;;;3116644;28;20135;-82
2021/06/03 07:04:19;;;;;;;4.93;2.47;;;20.20;54.10;;;;;;3116330;28;20050;-82
2021/06/03 07:05:49;;;;;;;2.72;2.53;;;20.20;54.10;;;;;;3116249;28;20041;-82
2021/06/03 07:07:20;;;;;;;2.38;2.17;;;20.20;54.70;;;;;;3116473;28;20037;-82
2021/06/03 07:08:51;;;;;;;2.95;2.60;;;20.20;54.10;;;;;;3115951;28;20507;-82
2021/06/03 07:10:22;;;;;;;2.92;2.42;;;20.20;54.10;;;;;;3115943;28;20095;-82
2021/06/03 07:11:53;;;;;;;2.78;2.50;;;20.20;54.00;;;;;;3116316;28;20074;-82
2021/06/03 07:13:24;;;;;;;2.45;2.25;;;20.20;54.10;;;;;;3116218;28;20074;-82
2021/06/03 07:14:55;;;;;;;2.70;2.50;;;20.20;54.10;;;;;;3115918;28;20046;-83
2021/06/03 07:16:28;;;;;;;3.35;2.70;;;20.20;54.10;;;;;;3114643;28;20077;-83
2021/06/03 07:17:58;;;;;;;2.50;2.30;;;20.20;54.10;;;;;;3115877;28;20073;-82
2021/06/03 07:19:29;;;;;;;4.07;2.75;;;20.20;54.10;;;;;;3116507;28;20378;-83
2021/06/03 07:21:00;;;;;;;2.88;2.50;;;20.20;54.00;;;;;;3114437;28;20046;-81
2021/06/03 07:22:31;;;;;;;2.88;2.47;;;20.20;54.10;;;;;;3116567;28;20617;-82
2021/06/03 07:24:02;;;;;;;2.70;2.50;;;20.20;54.00;;;;;;3115773;28;20042;-82
2021/06/03 07:25:35;;;;;;;2.67;2.28;;;20.20;54.10;;;;;;3115754;28;20112;-81
2021/06/03 07:27:07;;;;;;;4.82;2.50;;;20.20;54.10;;;;;;3115566;28;20062;-83
2021/06/03 07:28:38;;;;;;;3.25;2.83;;;20.20;54.00;;;;;;3115629;28;20054;-82
2021/06/03 07:30:10;;;;;;;2.63;2.30;;;20.20;54.00;;;;;;3113754;28;20103;-82
2021/06/03 07:31:42;;;;;;;2.92;2.65;;;20.20;54.00;;;;;;3116774;28;20056;-83
2021/06/03 07:33:13;;;;;;;3.05;2.72;;;20.20;54.10;;;;;;3116338;28;20081;-82
2021/06/03 07:34:45;;;;;;;2.65;2.45;;;20.20;54.10;;;;;;3116260;28;20077;-83
2021/06/03 07:36:16;;;;;;;4.40;2.42;;;20.20;54.10;;;;;;3116086;28;20445;-83
2021/06/03 07:37:47;;;;;;;2.80;2.50;;;20.20;54.00;;;;;;3116408;28;20053;-82
2021/06/03 07:39:20;;;;;;;3.05;2.67;;;20.20;54.10;;;;;;3116415;28;20054;-81
2021/06/03 07:40:52;;;;;;;2.88;2.50;;;20.20;54.00;;;;;;3115121;28;20046;-83
2021/06/03 07:42:22;;;;;;;2.60;2.40;;;20.20;54.10;;;;;;3116964;28;20057;-82
2021/06/03 07:43:53;;;;;;;2.88;2.53;;;20.20;54.10;;;;;;3115888;28;20056;-82
2021/06/03 07:45:26;;;;;;;2.83;2.50;;;20.20;54.10;;;;;;3115931;28;20061;-82
2021/06/03 07:46:58;;;;;;;2.83;2.55;;;20.20;54.10;;;;;;3116309;28;20085;-82
2021/06/03 07:48:29;;;;;;;2.92;2.63;;;20.20;54.10;;;;;;3117194;28;20081;-82
2021/06/03 07:50:00;;;;;;;2.85;2.50;;;20.20;54.10;;;;;;3116528;28;20046;-83
2021/06/03 07:51:31;;;;;;;3.05;2.75;;;20.20;54.10;;;;;;3115309;28;20046;-81
2021/06/03 07:53:03;;;;;;;2.60;2.40;;;20.20;54.10;;;;;;3114782;28;20128;-82
2021/06/03 07:54:35;;;;;;;2.50;2.30;;;20.20;54.10;;;;;;3113647;28;20045;-82
2021/06/03 07:56:06;;;;;;;2.50;2.30;;;20.20;54.10;;;;;;3113351;28;20138;-82
2021/06/03 07:57:37;;;;;;;4.28;2.50;;;20.20;54.10;;;;;;3114093;28;20064;-83
2021/06/03 07:59:08;;;;;;;3.83;2.47;;;20.20;54.10;;;;;;3113961;28;20043;-82
2021/06/03 08:00:41;;;;;;;3.08;2.50;;;20.20;54.20;;;;;;3113629;28;20079;-82